Mason Valley Wildlife Refuge, Nevada Weather observations

Data are for 10 minute period ending at time listed.
 Day   Time   Solar   Ave.   Ave.  Ave.  Vector  Max.   Baro.   Total    
  of    of     Rad.   Air    Rel.  Wind   Wind   Wind  Press.  Precip.   
Year   Day            Temp.  Hum.  Speed  Dir.   Gust                    
2016   (PST)  Kw/m2    F      %     mph   deg.    mph    mb.     in.     
-------------------------------------------------------------------------
 239    7:50   0.36   66.4    27    1.9   247     3.4   868.8    0.00 
 239    8:00   0.39   68.3    26    1.2   232     3.2   868.8    0.00 
 239    8:10   0.42   69.2    24    1.2   244     2.7   868.7    0.00 
 239    8:20   0.45   70.9    21    1.3   232     3.1   868.6    0.00 
 239    8:30   0.48   71.2    23    1.8   219     3.1   868.6    0.00 
 239    8:40   0.50   73.0    17    1.3   205     2.6   868.5    0.00 
 239    8:50   0.53   73.0    20    2.4   211     3.7   868.4    0.00 
 239    9:00   0.56   73.5    19    2.2   222     4.2   868.3    0.00 
 239    9:10   0.58   74.6    19    2.6   222     4.2   868.1    0.00 
 239    9:20   0.61   75.8    16    1.8   232     4.7   868.1    0.00 
 239    9:30   0.63   77.9    14    1.2   329     4.2   868.0    0.00 
 239    9:40   0.65   78.5    14    2.4   234     5.5   867.9    0.00 
 239    9:50   0.68   78.2    15    2.2   225     5.3   868.0    0.00 
 239   10:00   0.69   79.1    15    2.5   219     5.0   868.0    0.00 
 239   10:10   0.71   79.6    14    2.3   214     4.9   868.0    0.00 
 239   10:20   0.73   80.5    14    1.5   210     4.6   867.8    0.00 
 239   10:30   0.74   81.4    13    1.8   297     4.7   867.8    0.00 
 239   10:40   0.76   81.5    12    3.3    14     9.6   867.8    0.00 
 239   10:50   0.78   81.5    11    4.9    61     7.7   867.8    0.00 
 239   11:00   0.79   82.5    11    2.8    16     6.0   867.7    0.00 
 239   11:10   0.80   82.7    11    4.4    27     9.7   867.7    0.00 
 239   11:20   0.81   82.9    11    3.1    35     6.5   867.6    0.00 
 239   11:30   0.81   83.4    10    5.6    38     9.2   867.5    0.00 
 239   11:40   0.82   84.5    10    3.7    42     7.8   867.4    0.00 
 239   11:50   0.82   84.3    10    4.7    55     8.6   867.3    0.00 
 239   12:00   0.83   85.4    10    3.2    61     8.0   867.3    0.00 
 239   12:10   0.83   85.9    10    3.6    97     8.6   867.3    0.00 
 239   12:20   0.83   85.7    10    4.4    55    11.1   867.3    0.00 
 239   12:30   0.83   86.6    10    4.0    97     9.2   867.1    0.00 
 239   12:40   0.83   86.6    10    2.6   208     9.4   867.1    0.00 
 239   12:50   0.82   87.9    10    3.3   129     7.9   867.0    0.00 
 239   13:00   0.82   87.3    10    7.5    61    15.4   866.9    0.00 
 239   13:10   0.81   87.5     9    7.0    33    11.7   867.0    0.00 
 239   13:20   0.80   87.8     9    4.9   352    11.0   866.9    0.00 
 239   13:30   0.79   88.2    11    3.8   207     6.3   866.7    0.00 
 239   13:40   0.78   88.5    10    3.6   143     7.6   866.6    0.00 
 239   13:50   0.76   88.0     9    5.0    98    10.8   866.4    0.00 
 239   14:00   0.75   88.6    10    3.0   162     7.4   866.2    0.00 
 239   14:10   0.73   88.8     9    6.0    43    13.1   866.2    0.00 
 239   14:20   0.71   88.3     9    5.7    61    13.7   866.1    0.00 
 239   14:30   0.69   87.8     9    4.0    55     8.8   866.0    0.00 
 239   14:40   0.67   88.9     9    5.9     3    14.1   865.9    0.00 
 239   14:50   0.65   88.9     9    4.1   341     9.1   865.8    0.00 
 239   15:00   0.62   89.3    10    5.7    13    14.2   865.8    0.00 
 239   15:10   0.60   88.7     9    5.6     4    10.0   865.8    0.00 
 239   15:20   0.56   88.8     9    4.7    20    11.2   865.7    0.00 
 239   15:30   0.42   88.5     9    5.0    23    10.1   865.6    0.00 
 239   15:40   0.22   87.1    10    6.1    73    11.5   865.6    0.00 
 239   15:50   0.41   87.3    10    4.5    98     8.0   865.5    0.00 
 239   16:00   0.10   86.6    10    3.4    41     7.4   865.4    0.00 
 239   16:10   0.22   86.4    10    4.3     3     7.4   865.3    0.00 
 239   16:20   0.43   87.6    10    3.9    64     7.2   865.3    0.00 
 239   16:30   0.42   89.0    10    1.7   336     4.5   865.3    0.00 
 239   16:40   0.41   88.8    10    5.8   331    10.4   865.3    0.00 
 239   16:50   0.36   88.8    11    2.5   254     7.6   865.3    0.00 
 239   17:00   0.33   87.5    14    4.0   238     7.3   865.3    0.00 
 239   17:10   0.31   88.0    11    6.3   294    11.2   865.3    0.00 
 239   17:20   0.27   88.2    11    6.5   306    12.6   865.3    0.00 
 239   17:30   0.23   88.2    11    5.5   289    11.0   865.2    0.00 
 239   17:40   0.20   87.5    11    5.1   302    10.7   865.3    0.00 
 239   17:50   0.16   86.6    11    5.5   295    12.2   865.3    0.00 
 239   18:00   0.12   85.7    11    5.6   288    10.4   865.3    0.00 
 239   18:10   0.08   84.2    12    4.4   313     8.6   865.3    0.00 
 239   18:20   0.04   83.0    12    4.5   328     8.6   865.4    0.00 
 239   18:30   0.02   81.9    12    5.9   345    11.0   865.5    0.00 
 239   18:40   0.01   80.5    12    4.5   338     7.4   865.5    0.00 
 239   18:50   0.00   80.1    13    3.7   319     8.6   865.5    0.00 
 239   19:00   0.00   78.2    15    3.6   311     6.9   865.5    0.00 
 239   19:10   0.00   77.3    15    4.1   320     8.8   865.6    0.00 
 239   19:20   0.00   76.7    16    4.5   329     7.2   865.7    0.00 
 239   19:30   0.00   76.2    17    4.1   332     6.9   865.8    0.00 
 239   19:40   0.00   75.6    17    3.1   324     4.8   866.0    0.00 
 239   19:50   0.00   74.5    18    2.1   302     3.7   866.2    0.00 
 239   20:00   0.00   71.2    24    2.6   250     3.7   866.3    0.00 
 239   20:10   0.00   70.4    25    1.7   258     2.4   866.5    0.00 
 239   20:20   0.00   72.1    21    2.2   309     3.9   866.7    0.00 
 239   20:30   0.00   73.3    19    2.7   349     4.2   866.8    0.00 
 239   20:40   0.00   74.1    18    3.5   338     5.3   866.8    0.00 
 239   20:50   0.00   72.6    21    2.3   272     4.3   866.8    0.00 
 239   21:00   0.00   68.5    26    2.7   246     4.2   866.8    0.00 
 239   21:10   0.00   68.1    26    3.1   262     4.3   866.9    0.00 
 239   21:20   0.00   69.0    23    1.8   300     5.5   867.0    0.00 
 239   21:30   0.00   68.6    24    1.2   273     2.6   866.9    0.00 
 239   21:40   0.00   65.3    34    3.0   222     5.0   867.0    0.00 
 239   21:50   0.00   61.2    42    4.7   196     6.0   867.1    0.00 
 239   22:00   0.00   60.9    37    3.1   145     5.6   867.2    0.00 
 239   22:10   0.00   62.1    31    2.5   136     4.2   867.4    0.00 
 239   22:20   0.00   57.5    46    4.3   198     5.8   867.5    0.00 
 239   22:30   0.00   64.8    28    2.6   292     4.2   867.6    0.00 
 239   22:40   0.00   70.2    22    4.1   324     5.8   867.6    0.00 
 239   22:50   0.00   69.7    23    2.3   264     3.8   867.6    0.00 
 239   23:00   0.00   67.3    26    2.4   251     3.4   867.7    0.00 
 239   23:10   0.00   70.1    22    2.5   303     4.2   867.7    0.00 
 239   23:20   0.00   72.0    20    2.7   332     4.1   867.7    0.00 
 239   23:30   0.00   71.4    21    2.6   302     3.9   867.7    0.00 
 239   23:40   0.00   67.0    25    2.2   272     3.1   867.7    0.00 
 239   23:50   0.00   63.6    35    2.3   233     5.6   867.7    0.00 
 240    0:00   0.00   55.1    58    1.6   216     4.5   867.8    0.00 
 240    0:10   0.00   53.5    55    2.6   238     5.0   867.8    0.00 
 240    0:20   0.00   56.5    47    3.7   229     5.2   867.7    0.00 
 240    0:30   0.00   54.1    54    1.5   304     6.1   867.8    0.00 
 240    0:40   0.00   55.1    43    2.4   338     5.8   867.8    0.00 
 240    0:50   0.00   56.4    39    2.2    64     5.4   867.8    0.00 
 240    1:00   0.00   54.1    39    2.6    93     4.5   867.8    0.00 
 240    1:10   0.00   54.3    40    2.4   277     3.8   867.8    0.00 
 240    1:20   0.00   53.4    42    1.8   287     5.6   867.8    0.00 
 240    1:30   0.00   51.4    44    1.7   125     5.0   867.8    0.00 
 240    1:40   0.00   52.1    47    1.2   181     2.9   867.8    0.00 
 240    1:50   0.00   51.1    50    1.3   122     3.3   867.9    0.00 
 240    2:00   0.00   50.2    46    0.0   129     0.5   868.0    0.00 
 240    2:10   0.00   52.1    42    0.3    94     4.5   867.9    0.00 
 240    2:20   0.00   49.0    44    2.2   100     3.2   867.9    0.00 
 240    2:30   0.00   50.6    45    2.9   111     4.2   867.9    0.00 
 240    2:40   0.00   50.8    44    1.4   102     3.0   868.0    0.00 
 240    2:50   0.00   49.7    49    0.8   154     2.5   868.0    0.00 
 240    3:00   0.00   49.8    54    2.2   172     3.5   868.1    0.00 
 240    3:10   0.00   49.0    56    0.5   143     2.4   868.1    0.00 
 240    3:20   0.00   50.7    53    1.8   184     2.4   868.1    0.00 
 240    3:30   0.00   50.3    57    1.3   176     2.6   868.1    0.00 
 240    3:40   0.00   47.9    53    1.0   316     2.6   868.2    0.00 
 240    3:50   0.00   47.3    56    0.6   317     1.4   868.1    0.00 
 240    4:00   0.00   47.0    55    2.1    23     3.4   868.3    0.00 
 240    4:10   0.00   47.8    54    0.1     1     0.7   868.3    0.00 
 240    4:20   0.00   46.7    55    0.9    57     1.7   868.4    0.00 
 240    4:30   0.00   46.0    58    0.3    57     1.3   868.4    0.00 
 240    4:40   0.00   46.2    71    2.5   190     3.4   868.4    0.00 
 240    4:50   0.00   46.9    66    2.5   204     3.4   868.5    0.00 
 240    5:00   0.00   47.7    63    2.5   194     3.6   868.6    0.00 
 240    5:10   0.00   50.2    56    2.4   215     3.7   868.6    0.00 
 240    5:20   0.00   48.9    62    3.0   216     5.9   868.8    0.00 
 240    5:30   0.01   49.2    61    3.1   216     5.0   869.0    0.00 
 240    5:40   0.02   51.5    53    2.4   227     3.3   869.0    0.00 
 240    5:50   0.03   51.6    56    1.3   195     2.8   869.1    0.00 
 240    6:00   0.05   49.9    54    2.2   326     3.4   869.2    0.00 
 240    6:10   0.06   50.5    51    1.5   310     2.9   869.3    0.00 
 240    6:20   0.08   53.2    47    1.2   344     2.3   869.3    0.00 
 240    6:30   0.11   54.7    47    2.5   341     4.2   869.5    0.00 
 240    6:40   0.14   58.2    42    0.4   353     1.7   869.5    0.00 
 240    6:50   0.17   59.7    38    1.4   347     2.0   869.6    0.00 
 240    7:00   0.20   62.0    34    0.9   328     2.0   869.7    0.00 
 240    7:10   0.23   64.8    30    1.9   255     3.4   869.7    0.00 
 240    7:20   0.26   65.6    32    1.2   219     2.3   869.7    0.00 
 240    7:30   0.29   66.7    31    1.7   226     2.9   869.7    0.00 
 240    7:40   0.32   67.6    33    1.5   223     3.0   869.7    0.00 

Return to Mason Valley Wildlife Refuge graphs page.


Western Regional Climate Center,wrcc@dri.edu